sensor_id;sensor_type;location;lat;lon;timestamp;P1;durP1;ratioP1;P2;durP2;ratioP2
1563;SDS011;775;51.958;7.976;2023-07-16T00:01:21;11.87;;;2.07;;
1563;SDS011;775;51.958;7.976;2023-07-16T00:03:48;11.73;;;1.93;;
1563;SDS011;775;51.958;7.976;2023-07-16T00:06:15;14.10;;;2.07;;
1563;SDS011;775;51.958;7.976;2023-07-16T00:08:42;11.80;;;1.90;;
1563;SDS011;775;51.958;7.976;2023-07-16T00:11:09;13.10;;;1.97;;
1563;SDS011;775;51.958;7.976;2023-07-16T00:13:36;12.23;;;2.10;;
1563;SDS011;775;51.958;7.976;2023-07-16T00:16:04;12.57;;;2.07;;
1563;SDS011;775;51.958;7.976;2023-07-16T00:18:32;11.97;;;1.77;;
1563;SDS011;775;51.958;7.976;2023-07-16T00:20:59;11.17;;;1.77;;
1563;SDS011;775;51.958;7.976;2023-07-16T00:23:26;12.13;;;2.10;;
1563;SDS011;775;51.958;7.976;2023-07-16T00:25:53;11.97;;;1.90;;
1563;SDS011;775;51.958;7.976;2023-07-16T00:28:20;12.70;;;2.13;;
1563;SDS011;775;51.958;7.976;2023-07-16T00:30:48;12.67;;;1.83;;
1563;SDS011;775;51.958;7.976;2023-07-16T00:33:15;11.20;;;1.97;;
1563;SDS011;775;51.958;7.976;2023-07-16T00:35:47;13.63;;;2.40;;
1563;SDS011;775;51.958;7.976;2023-07-16T00:38:14;12.60;;;2.07;;
1563;SDS011;775;51.958;7.976;2023-07-16T00:40:42;13.13;;;2.50;;
1563;SDS011;775;51.958;7.976;2023-07-16T00:43:09;11.73;;;1.93;;
1563;SDS011;775;51.958;7.976;2023-07-16T00:45:36;15.40;;;2.10;;
1563;SDS011;775;51.958;7.976;2023-07-16T00:48:03;12.67;;;2.00;;
1563;SDS011;775;51.958;7.976;2023-07-16T00:50:31;13.77;;;2.03;;
1563;SDS011;775;51.958;7.976;2023-07-16T00:53:00;12.17;;;2.03;;
1563;SDS011;775;51.958;7.976;2023-07-16T00:55:28;11.93;;;2.13;;
1563;SDS011;775;51.958;7.976;2023-07-16T00:57:56;13.33;;;2.20;;
1563;SDS011;775;51.958;7.976;2023-07-16T01:00:27;11.60;;;1.83;;
1563;SDS011;775;51.958;7.976;2023-07-16T01:02:55;11.70;;;2.03;;
1563;SDS011;775;51.958;7.976;2023-07-16T01:05:22;12.20;;;2.43;;
1563;SDS011;775;51.958;7.976;2023-07-16T01:07:52;12.50;;;2.37;;
1563;SDS011;775;51.958;7.976;2023-07-16T01:10:22;12.17;;;2.40;;
1563;SDS011;775;51.958;7.976;2023-07-16T01:12:49;12.10;;;2.50;;
1563;SDS011;775;51.958;7.976;2023-07-16T01:15:17;12.40;;;1.97;;
1563;SDS011;775;51.958;7.976;2023-07-16T01:17:44;12.10;;;2.27;;
1563;SDS011;775;51.958;7.976;2023-07-16T01:20:11;13.80;;;2.70;;
1563;SDS011;775;51.958;7.976;2023-07-16T01:22:52;12.57;;;2.70;;
1563;SDS011;775;51.958;7.976;2023-07-16T01:25:44;14.37;;;2.40;;
1563;SDS011;775;51.958;7.976;2023-07-16T01:28:20;17.60;;;3.13;;
1563;SDS011;775;51.958;7.976;2023-07-16T01:30:50;11.90;;;2.27;;
1563;SDS011;775;51.958;7.976;2023-07-16T01:33:17;12.10;;;2.50;;
1563;SDS011;775;51.958;7.976;2023-07-16T01:35:45;13.87;;;2.87;;
1563;SDS011;775;51.958;7.976;2023-07-16T01:38:13;13.97;;;2.37;;
1563;SDS011;775;51.958;7.976;2023-07-16T01:40:41;13.87;;;2.53;;
1563;SDS011;775;51.958;7.976;2023-07-16T01:43:08;12.30;;;2.20;;
1563;SDS011;775;51.958;7.976;2023-07-16T01:45:35;13.50;;;2.53;;
1563;SDS011;775;51.958;7.976;2023-07-16T01:48:05;12.70;;;2.43;;
1563;SDS011;775;51.958;7.976;2023-07-16T01:50:34;13.20;;;2.37;;
1563;SDS011;775;51.958;7.976;2023-07-16T01:53:01;12.90;;;2.87;;
1563;SDS011;775;51.958;7.976;2023-07-16T01:55:28;13.23;;;2.33;;
1563;SDS011;775;51.958;7.976;2023-07-16T01:57:55;12.17;;;2.37;;
1563;SDS011;775;51.958;7.976;2023-07-16T02:00:22;12.27;;;2.30;;
1563;SDS011;775;51.958;7.976;2023-07-16T02:02:49;12.63;;;2.40;;
1563;SDS011;775;51.958;7.976;2023-07-16T02:05:18;12.80;;;3.03;;
1563;SDS011;775;51.958;7.976;2023-07-16T02:07:45;13.70;;;2.80;;
1563;SDS011;775;51.958;7.976;2023-07-16T02:10:12;12.00;;;2.30;;
1563;SDS011;775;51.958;7.976;2023-07-16T02:12:39;15.00;;;2.63;;
1563;SDS011;775;51.958;7.976;2023-07-16T02:15:06;11.63;;;2.03;;
1563;SDS011;775;51.958;7.976;2023-07-16T02:17:33;12.20;;;2.40;;
1563;SDS011;775;51.958;7.976;2023-07-16T02:20:00;13.47;;;2.20;;
1563;SDS011;775;51.958;7.976;2023-07-16T02:22:30;12.30;;;2.60;;
1563;SDS011;775;51.958;7.976;2023-07-16T02:24:57;12.20;;;1.90;;
1563;SDS011;775;51.958;7.976;2023-07-16T02:27:24;13.60;;;2.70;;
1563;SDS011;775;51.958;7.976;2023-07-16T02:29:51;11.77;;;2.27;;
1563;SDS011;775;51.958;7.976;2023-07-16T02:32:18;14.03;;;2.50;;
1563;SDS011;775;51.958;7.976;2023-07-16T02:34:45;12.13;;;2.10;;
1563;SDS011;775;51.958;7.976;2023-07-16T02:37:12;12.60;;;2.63;;
1563;SDS011;775;51.958;7.976;2023-07-16T02:39:42;12.80;;;2.20;;
1563;SDS011;775;51.958;7.976;2023-07-16T02:42:10;12.10;;;2.20;;
1563;SDS011;775;51.958;7.976;2023-07-16T02:44:37;11.73;;;2.20;;
1563;SDS011;775;51.958;7.976;2023-07-16T02:47:08;12.53;;;2.23;;
1563;SDS011;775;51.958;7.976;2023-07-16T02:49:35;14.43;;;3.60;;
1563;SDS011;775;51.958;7.976;2023-07-16T02:52:02;12.87;;;2.50;;
1563;SDS011;775;51.958;7.976;2023-07-16T02:54:30;14.70;;;2.87;;
1563;SDS011;775;51.958;7.976;2023-07-16T02:56:58;13.93;;;2.67;;
1563;SDS011;775;51.958;7.976;2023-07-16T02:59:25;12.30;;;2.30;;
1563;SDS011;775;51.958;7.976;2023-07-16T03:01:52;16.40;;;2.43;;
1563;SDS011;775;51.958;7.976;2023-07-16T03:04:20;11.73;;;2.43;;
1563;SDS011;775;51.958;7.976;2023-07-16T03:06:47;12.83;;;2.30;;
1563;SDS011;775;51.958;7.976;2023-07-16T03:09:14;12.30;;;2.30;;
1563;SDS011;775;51.958;7.976;2023-07-16T03:11:41;13.20;;;2.83;;
1563;SDS011;775;51.958;7.976;2023-07-16T03:14:09;15.20;;;2.90;;
1563;SDS011;775;51.958;7.976;2023-07-16T03:16:36;13.20;;;3.53;;
1563;SDS011;775;51.958;7.976;2023-07-16T03:19:03;13.67;;;3.20;;
1563;SDS011;775;51.958;7.976;2023-07-16T03:21:31;14.80;;;3.10;;
1563;SDS011;775;51.958;7.976;2023-07-16T03:23:58;13.63;;;3.60;;
1563;SDS011;775;51.958;7.976;2023-07-16T03:26:25;14.83;;;3.40;;
1563;SDS011;775;51.958;7.976;2023-07-16T03:28:52;13.00;;;3.07;;
1563;SDS011;775;51.958;7.976;2023-07-16T03:31:21;12.67;;;3.00;;
1563;SDS011;775;51.958;7.976;2023-07-16T03:33:48;14.67;;;3.30;;
1563;SDS011;775;51.958;7.976;2023-07-16T03:36:16;12.60;;;2.83;;
1563;SDS011;775;51.958;7.976;2023-07-16T03:38:44;12.70;;;3.27;;
1563;SDS011;775;51.958;7.976;2023-07-16T03:41:11;13.97;;;3.63;;
1563;SDS011;775;51.958;7.976;2023-07-16T03:43:38;13.03;;;2.80;;
1563;SDS011;775;51.958;7.976;2023-07-16T03:46:05;12.50;;;2.90;;
1563;SDS011;775;51.958;7.976;2023-07-16T03:48:34;16.40;;;3.50;;
1563;SDS011;775;51.958;7.976;2023-07-16T03:51:01;14.17;;;3.23;;
1563;SDS011;775;51.958;7.976;2023-07-16T03:53:29;13.23;;;2.90;;
1563;SDS011;775;51.958;7.976;2023-07-16T03:55:56;13.50;;;3.00;;
1563;SDS011;775;51.958;7.976;2023-07-16T03:58:23;13.30;;;2.90;;
1563;SDS011;775;51.958;7.976;2023-07-16T04:00:50;13.00;;;3.10;;
1563;SDS011;775;51.958;7.976;2023-07-16T04:03:17;15.90;;;3.10;;
1563;SDS011;775;51.958;7.976;2023-07-16T04:05:45;13.00;;;2.77;;
1563;SDS011;775;51.958;7.976;2023-07-16T04:08:12;13.70;;;2.77;;
1563;SDS011;775;51.958;7.976;2023-07-16T04:10:40;13.07;;;2.60;;
1563;SDS011;775;51.958;7.976;2023-07-16T04:13:07;12.37;;;3.00;;
1563;SDS011;775;51.958;7.976;2023-07-16T04:15:34;15.77;;;3.43;;
1563;SDS011;775;51.958;7.976;2023-07-16T04:18:01;13.73;;;2.77;;
1563;SDS011;775;51.958;7.976;2023-07-16T04:20:28;13.93;;;2.93;;
1563;SDS011;775;51.958;7.976;2023-07-16T04:22:57;14.63;;;2.93;;
1563;SDS011;775;51.958;7.976;2023-07-16T04:25:24;12.60;;;2.53;;
1563;SDS011;775;51.958;7.976;2023-07-16T04:27:51;13.83;;;3.20;;
1563;SDS011;775;51.958;7.976;2023-07-16T04:30:18;14.13;;;2.83;;
1563;SDS011;775;51.958;7.976;2023-07-16T04:32:46;12.23;;;3.00;;
1563;SDS011;775;51.958;7.976;2023-07-16T04:35:13;13.93;;;2.30;;
1563;SDS011;775;51.958;7.976;2023-07-16T04:37:40;13.63;;;3.00;;
1563;SDS011;775;51.958;7.976;2023-07-16T04:40:09;12.73;;;2.57;;
1563;SDS011;775;51.958;7.976;2023-07-16T04:42:36;13.93;;;2.57;;
1563;SDS011;775;51.958;7.976;2023-07-16T04:45:04;15.63;;;2.70;;
1563;SDS011;775;51.958;7.976;2023-07-16T04:47:31;12.53;;;2.60;;
1563;SDS011;775;51.958;7.976;2023-07-16T04:49:58;12.53;;;2.83;;
1563;SDS011;775;51.958;7.976;2023-07-16T04:52:25;14.70;;;2.60;;
1563;SDS011;775;51.958;7.976;2023-07-16T04:54:52;13.10;;;2.60;;
1563;SDS011;775;51.958;7.976;2023-07-16T04:57:20;12.83;;;2.30;;
1563;SDS011;775;51.958;7.976;2023-07-16T04:59:47;14.20;;;2.50;;
1563;SDS011;775;51.958;7.976;2023-07-16T05:02:14;13.93;;;2.40;;
1563;SDS011;775;51.958;7.976;2023-07-16T05:04:42;14.07;;;2.53;;
1563;SDS011;775;51.958;7.976;2023-07-16T05:07:12;12.93;;;2.20;;
1563;SDS011;775;51.958;7.976;2023-07-16T05:09:39;15.00;;;2.90;;
1563;SDS011;775;51.958;7.976;2023-07-16T05:12:06;12.40;;;2.20;;
1563;SDS011;775;51.958;7.976;2023-07-16T05:14:42;14.17;;;2.40;;
1563;SDS011;775;51.958;7.976;2023-07-16T05:17:10;17.90;;;2.50;;
1563;SDS011;775;51.958;7.976;2023-07-16T05:19:38;12.43;;;2.27;;
1563;SDS011;775;51.958;7.976;2023-07-16T05:22:05;15.57;;;2.47;;
1563;SDS011;775;51.958;7.976;2023-07-16T05:24:32;13.20;;;2.10;;
1563;SDS011;775;51.958;7.976;2023-07-16T05:26:59;12.00;;;2.27;;
1563;SDS011;775;51.958;7.976;2023-07-16T05:29:27;14.37;;;2.43;;
1563;SDS011;775;51.958;7.976;2023-07-16T05:31:56;13.43;;;2.43;;
1563;SDS011;775;51.958;7.976;2023-07-16T05:34:23;13.33;;;3.07;;
1563;SDS011;775;51.958;7.976;2023-07-16T05:36:52;12.70;;;2.80;;
1563;SDS011;775;51.958;7.976;2023-07-16T05:39:19;14.57;;;2.77;;
1563;SDS011;775;51.958;7.976;2023-07-16T05:41:46;13.43;;;3.10;;
1563;SDS011;775;51.958;7.976;2023-07-16T05:44:13;14.67;;;3.13;;
1563;SDS011;775;51.958;7.976;2023-07-16T05:46:40;13.13;;;3.37;;
1563;SDS011;775;51.958;7.976;2023-07-16T05:49:09;12.50;;;2.80;;
1563;SDS011;775;51.958;7.976;2023-07-16T05:51:36;13.43;;;2.80;;
1563;SDS011;775;51.958;7.976;2023-07-16T05:54:03;14.30;;;2.60;;
1563;SDS011;775;51.958;7.976;2023-07-16T05:56:30;13.90;;;2.90;;
1563;SDS011;775;51.958;7.976;2023-07-16T05:58:57;13.67;;;2.73;;
1563;SDS011;775;51.958;7.976;2023-07-16T06:01:25;14.30;;;3.13;;
1563;SDS011;775;51.958;7.976;2023-07-16T06:03:52;14.57;;;3.30;;
1563;SDS011;775;51.958;7.976;2023-07-16T06:06:20;14.20;;;2.90;;
1563;SDS011;775;51.958;7.976;2023-07-16T06:08:48;14.93;;;3.33;;
1563;SDS011;775;51.958;7.976;2023-07-16T06:11:15;13.40;;;2.93;;
1563;SDS011;775;51.958;7.976;2023-07-16T06:13:42;13.90;;;3.40;;
1563;SDS011;775;51.958;7.976;2023-07-16T06:16:09;14.87;;;3.47;;
1563;SDS011;775;51.958;7.976;2023-07-16T06:18:36;19.00;;;3.40;;
1563;SDS011;775;51.958;7.976;2023-07-16T06:21:03;15.33;;;3.10;;
1563;SDS011;775;51.958;7.976;2023-07-16T06:23:31;14.90;;;2.60;;
1563;SDS011;775;51.958;7.976;2023-07-16T06:25:58;14.70;;;2.77;;
1563;SDS011;775;51.958;7.976;2023-07-16T06:28:25;14.10;;;2.97;;
1563;SDS011;775;51.958;7.976;2023-07-16T06:30:53;13.10;;;2.83;;
1563;SDS011;775;51.958;7.976;2023-07-16T06:33:20;15.50;;;3.20;;
1563;SDS011;775;51.958;7.976;2023-07-16T06:35:47;12.90;;;3.33;;
1563;SDS011;775;51.958;7.976;2023-07-16T06:38:14;14.47;;;3.03;;
1563;SDS011;775;51.958;7.976;2023-07-16T06:40:46;14.87;;;3.30;;
1563;SDS011;775;51.958;7.976;2023-07-16T06:43:14;15.70;;;3.97;;
1563;SDS011;775;51.958;7.976;2023-07-16T06:45:41;16.53;;;3.50;;
1563;SDS011;775;51.958;7.976;2023-07-16T06:48:08;14.30;;;4.37;;
1563;SDS011;775;51.958;7.976;2023-07-16T06:50:35;22.23;;;3.87;;
1563;SDS011;775;51.958;7.976;2023-07-16T06:53:02;16.03;;;3.70;;
1563;SDS011;775;51.958;7.976;2023-07-16T06:55:29;17.20;;;4.00;;
1563;SDS011;775;51.958;7.976;2023-07-16T06:57:58;20.10;;;4.13;;
1563;SDS011;775;51.958;7.976;2023-07-16T07:00:25;17.63;;;3.57;;
1563;SDS011;775;51.958;7.976;2023-07-16T07:02:52;14.33;;;4.07;;
1563;SDS011;775;51.958;7.976;2023-07-16T07:05:19;15.50;;;3.40;;
1563;SDS011;775;51.958;7.976;2023-07-16T07:07:46;12.90;;;2.80;;
1563;SDS011;775;51.958;7.976;2023-07-16T07:10:13;14.43;;;3.13;;
1563;SDS011;775;51.958;7.976;2023-07-16T07:12:40;15.27;;;4.00;;
1563;SDS011;775;51.958;7.976;2023-07-16T07:15:09;14.13;;;3.27;;
1563;SDS011;775;51.958;7.976;2023-07-16T07:17:36;18.30;;;4.90;;
1563;SDS011;775;51.958;7.976;2023-07-16T07:20:03;15.87;;;3.53;;
1563;SDS011;775;51.958;7.976;2023-07-16T07:22:31;14.10;;;3.37;;
1563;SDS011;775;51.958;7.976;2023-07-16T07:24:58;13.93;;;3.33;;
1563;SDS011;775;51.958;7.976;2023-07-16T07:27:26;19.97;;;4.03;;
1563;SDS011;775;51.958;7.976;2023-07-16T07:29:53;15.33;;;3.00;;
1563;SDS011;775;51.958;7.976;2023-07-16T07:32:22;18.07;;;3.80;;
1563;SDS011;775;51.958;7.976;2023-07-16T07:34:49;14.67;;;3.63;;
1563;SDS011;775;51.958;7.976;2023-07-16T07:37:16;13.97;;;3.80;;
1563;SDS011;775;51.958;7.976;2023-07-16T07:39:43;14.97;;;3.50;;
1563;SDS011;775;51.958;7.976;2023-07-16T07:42:12;19.97;;;4.10;;
1563;SDS011;775;51.958;7.976;2023-07-16T07:44:40;17.07;;;3.90;;
1563;SDS011;775;51.958;7.976;2023-07-16T07:47:07;14.60;;;3.23;;
1563;SDS011;775;51.958;7.976;2023-07-16T07:49:35;18.33;;;3.50;;
1563;SDS011;775;51.958;7.976;2023-07-16T07:52:03;13.70;;;3.90;;
1563;SDS011;775;51.958;7.976;2023-07-16T07:54:31;14.77;;;3.57;;
1563;SDS011;775;51.958;7.976;2023-07-16T07:57:00;14.90;;;4.10;;
1563;SDS011;775;51.958;7.976;2023-07-16T07:59:28;14.90;;;3.53;;
1563;SDS011;775;51.958;7.976;2023-07-16T08:01:55;15.10;;;3.57;;
1563;SDS011;775;51.958;7.976;2023-07-16T08:04:23;15.57;;;3.27;;
1563;SDS011;775;51.958;7.976;2023-07-16T08:06:52;16.83;;;3.60;;
1563;SDS011;775;51.958;7.976;2023-07-16T08:09:20;13.70;;;3.77;;
1563;SDS011;775;51.958;7.976;2023-07-16T08:11:47;15.33;;;3.73;;
1563;SDS011;775;51.958;7.976;2023-07-16T08:14:14;14.30;;;3.30;;
1563;SDS011;775;51.958;7.976;2023-07-16T08:16:41;16.57;;;3.90;;
1563;SDS011;775;51.958;7.976;2023-07-16T08:19:08;16.20;;;3.23;;
1563;SDS011;775;51.958;7.976;2023-07-16T08:21:35;16.20;;;3.70;;
1563;SDS011;775;51.958;7.976;2023-07-16T08:24:04;15.47;;;3.90;;
1563;SDS011;775;51.958;7.976;2023-07-16T08:26:31;18.93;;;3.63;;
1563;SDS011;775;51.958;7.976;2023-07-16T08:28:58;14.10;;;3.43;;
1563;SDS011;775;51.958;7.976;2023-07-16T08:31:26;13.10;;;3.30;;
1563;SDS011;775;51.958;7.976;2023-07-16T08:33:53;16.30;;;3.90;;
1563;SDS011;775;51.958;7.976;2023-07-16T08:36:21;14.00;;;3.60;;
1563;SDS011;775;51.958;7.976;2023-07-16T08:38:48;12.27;;;2.90;;
1563;SDS011;775;51.958;7.976;2023-07-16T08:41:16;13.43;;;3.50;;
1563;SDS011;775;51.958;7.976;2023-07-16T08:43:44;13.93;;;3.97;;
1563;SDS011;775;51.958;7.976;2023-07-16T08:46:12;13.80;;;3.63;;
1563;SDS011;775;51.958;7.976;2023-07-16T08:48:39;14.57;;;4.50;;
1563;SDS011;775;51.958;7.976;2023-07-16T08:51:07;15.50;;;3.53;;
1563;SDS011;775;51.958;7.976;2023-07-16T08:53:36;12.97;;;3.60;;
1563;SDS011;775;51.958;7.976;2023-07-16T08:56:04;13.40;;;3.90;;
1563;SDS011;775;51.958;7.976;2023-07-16T08:58:32;15.53;;;3.63;;
1563;SDS011;775;51.958;7.976;2023-07-16T09:00:59;15.70;;;3.60;;
1563;SDS011;775;51.958;7.976;2023-07-16T09:03:27;15.37;;;4.00;;
1563;SDS011;775;51.958;7.976;2023-07-16T09:05:54;13.97;;;3.67;;
1563;SDS011;775;51.958;7.976;2023-07-16T09:08:22;15.90;;;3.70;;
1563;SDS011;775;51.958;7.976;2023-07-16T09:10:53;16.93;;;3.80;;
1563;SDS011;775;51.958;7.976;2023-07-16T09:13:21;14.40;;;3.20;;
1563;SDS011;775;51.958;7.976;2023-07-16T09:15:53;15.50;;;3.80;;
1563;SDS011;775;51.958;7.976;2023-07-16T09:18:21;15.50;;;3.90;;
1563;SDS011;775;51.958;7.976;2023-07-16T09:20:48;12.97;;;3.10;;
1563;SDS011;775;51.958;7.976;2023-07-16T09:23:18;14.50;;;3.60;;
1563;SDS011;775;51.958;7.976;2023-07-16T09:25:45;14.50;;;3.70;;
1563;SDS011;775;51.958;7.976;2023-07-16T09:28:12;14.87;;;3.57;;
1563;SDS011;775;51.958;7.976;2023-07-16T09:30:40;14.83;;;3.83;;
1563;SDS011;775;51.958;7.976;2023-07-16T09:33:12;16.40;;;3.50;;
1563;SDS011;775;51.958;7.976;2023-07-16T09:35:39;15.73;;;3.97;;
1563;SDS011;775;51.958;7.976;2023-07-16T09:38:07;12.50;;;3.00;;
1563;SDS011;775;51.958;7.976;2023-07-16T09:40:35;15.87;;;3.57;;
1563;SDS011;775;51.958;7.976;2023-07-16T09:43:02;17.10;;;3.37;;
1563;SDS011;775;51.958;7.976;2023-07-16T09:45:30;13.57;;;3.10;;
1563;SDS011;775;51.958;7.976;2023-07-16T09:47:57;15.40;;;3.60;;
1563;SDS011;775;51.958;7.976;2023-07-16T09:50:26;12.67;;;3.60;;
1563;SDS011;775;51.958;7.976;2023-07-16T09:52:54;13.27;;;3.10;;
1563;SDS011;775;51.958;7.976;2023-07-16T09:55:22;13.57;;;4.03;;
1563;SDS011;775;51.958;7.976;2023-07-16T09:57:50;12.53;;;3.00;;
1563;SDS011;775;51.958;7.976;2023-07-16T10:00:17;15.53;;;3.53;;
1563;SDS011;775;51.958;7.976;2023-07-16T10:02:45;13.33;;;3.40;;
1563;SDS011;775;51.958;7.976;2023-07-16T10:05:13;13.53;;;3.40;;
1563;SDS011;775;51.958;7.976;2023-07-16T10:07:42;12.20;;;3.00;;
1563;SDS011;775;51.958;7.976;2023-07-16T10:10:10;14.43;;;2.90;;
1563;SDS011;775;51.958;7.976;2023-07-16T10:12:38;12.17;;;2.97;;
1563;SDS011;775;51.958;7.976;2023-07-16T10:15:05;12.53;;;3.30;;
1563;SDS011;775;51.958;7.976;2023-07-16T10:17:32;20.10;;;3.80;;
1563;SDS011;775;51.958;7.976;2023-07-16T10:20:00;14.00;;;4.17;;
1563;SDS011;775;51.958;7.976;2023-07-16T10:22:33;13.97;;;3.37;;
1563;SDS011;775;51.958;7.976;2023-07-16T10:25:03;13.70;;;3.37;;
1563;SDS011;775;51.958;7.976;2023-07-16T10:27:31;19.23;;;3.90;;
1563;SDS011;775;51.958;7.976;2023-07-16T10:29:58;14.97;;;3.63;;
1563;SDS011;775;51.958;7.976;2023-07-16T10:32:27;14.73;;;3.40;;
1563;SDS011;775;51.958;7.976;2023-07-16T10:34:54;11.97;;;2.87;;
1563;SDS011;775;51.958;7.976;2023-07-16T10:37:22;13.00;;;3.07;;
1563;SDS011;775;51.958;7.976;2023-07-16T10:39:49;15.00;;;2.87;;
1563;SDS011;775;51.958;7.976;2023-07-16T10:42:18;13.27;;;3.83;;
1563;SDS011;775;51.958;7.976;2023-07-16T10:44:48;13.63;;;3.50;;
1563;SDS011;775;51.958;7.976;2023-07-16T10:47:20;12.70;;;3.33;;
1563;SDS011;775;51.958;7.976;2023-07-16T10:49:47;14.70;;;3.97;;
1563;SDS011;775;51.958;7.976;2023-07-16T10:52:14;12.30;;;2.80;;
1563;SDS011;775;51.958;7.976;2023-07-16T10:54:42;13.87;;;2.83;;
1563;SDS011;775;51.958;7.976;2023-07-16T10:57:10;12.60;;;2.90;;
1563;SDS011;775;51.958;7.976;2023-07-16T10:59:39;14.63;;;3.60;;
1563;SDS011;775;51.958;7.976;2023-07-16T11:02:08;14.20;;;3.93;;
1563;SDS011;775;51.958;7.976;2023-07-16T11:04:37;14.33;;;3.30;;
1563;SDS011;775;51.958;7.976;2023-07-16T11:07:05;14.67;;;3.50;;
1563;SDS011;775;51.958;7.976;2023-07-16T11:09:33;14.97;;;3.40;;
1563;SDS011;775;51.958;7.976;2023-07-16T11:12:06;13.13;;;3.67;;
1563;SDS011;775;51.958;7.976;2023-07-16T11:14:33;13.30;;;3.63;;
1563;SDS011;775;51.958;7.976;2023-07-16T11:17:05;16.00;;;3.50;;
1563;SDS011;775;51.958;7.976;2023-07-16T11:19:33;13.57;;;2.97;;
1563;SDS011;775;51.958;7.976;2023-07-16T11:22:01;12.40;;;3.60;;
1563;SDS011;775;51.958;7.976;2023-07-16T11:24:28;12.70;;;2.80;;
1563;SDS011;775;51.958;7.976;2023-07-16T11:26:55;18.17;;;3.40;;
1563;SDS011;775;51.958;7.976;2023-07-16T11:29:23;14.10;;;3.07;;
1563;SDS011;775;51.958;7.976;2023-07-16T11:31:50;12.43;;;3.07;;
1563;SDS011;775;51.958;7.976;2023-07-16T11:34:20;13.40;;;3.30;;
1563;SDS011;775;51.958;7.976;2023-07-16T11:36:48;12.27;;;2.77;;
1563;SDS011;775;51.958;7.976;2023-07-16T11:39:15;13.40;;;3.33;;
1563;SDS011;775;51.958;7.976;2023-07-16T11:41:53;16.30;;;4.00;;
1563;SDS011;775;51.958;7.976;2023-07-16T11:44:20;14.20;;;2.60;;
1563;SDS011;775;51.958;7.976;2023-07-16T11:46:47;15.00;;;3.67;;
1563;SDS011;775;51.958;7.976;2023-07-16T11:49:14;14.70;;;3.00;;
1563;SDS011;775;51.958;7.976;2023-07-16T11:51:42;13.67;;;3.37;;
1563;SDS011;775;51.958;7.976;2023-07-16T11:54:10;15.50;;;3.20;;
1563;SDS011;775;51.958;7.976;2023-07-16T11:56:37;16.33;;;3.30;;
1563;SDS011;775;51.958;7.976;2023-07-16T11:59:04;12.70;;;2.90;;
1563;SDS011;775;51.958;7.976;2023-07-16T12:01:31;12.37;;;3.03;;
1563;SDS011;775;51.958;7.976;2023-07-16T12:03:58;14.10;;;3.40;;
1563;SDS011;775;51.958;7.976;2023-07-16T12:06:25;14.60;;;3.37;;
1563;SDS011;775;51.958;7.976;2023-07-16T12:08:53;11.97;;;2.90;;
1563;SDS011;775;51.958;7.976;2023-07-16T12:11:21;14.93;;;3.47;;
1563;SDS011;775;51.958;7.976;2023-07-16T12:13:48;16.83;;;3.20;;
1563;SDS011;775;51.958;7.976;2023-07-16T12:16:15;15.50;;;3.17;;
1563;SDS011;775;51.958;7.976;2023-07-16T12:18:42;14.20;;;3.30;;
1563;SDS011;775;51.958;7.976;2023-07-16T12:21:09;12.80;;;2.93;;
1563;SDS011;775;51.958;7.976;2023-07-16T12:23:36;12.93;;;2.87;;
1563;SDS011;775;51.958;7.976;2023-07-16T12:26:05;17.87;;;3.90;;
1563;SDS011;775;51.958;7.976;2023-07-16T12:28:33;15.80;;;3.70;;
1563;SDS011;775;51.958;7.976;2023-07-16T12:31:00;16.20;;;3.27;;
1563;SDS011;775;51.958;7.976;2023-07-16T12:33:27;14.93;;;3.30;;
1563;SDS011;775;51.958;7.976;2023-07-16T12:35:54;14.70;;;3.03;;
1563;SDS011;775;51.958;7.976;2023-07-16T12:38:22;13.00;;;2.80;;
1563;SDS011;775;51.958;7.976;2023-07-16T12:40:49;13.10;;;3.53;;
1563;SDS011;775;51.958;7.976;2023-07-16T12:43:17;11.90;;;2.80;;
1563;SDS011;775;51.958;7.976;2023-07-16T12:45:44;11.60;;;2.80;;
1563;SDS011;775;51.958;7.976;2023-07-16T12:48:11;13.13;;;2.70;;
1563;SDS011;775;51.958;7.976;2023-07-16T12:50:38;14.20;;;3.97;;
1563;SDS011;775;51.958;7.976;2023-07-16T12:53:05;14.47;;;3.10;;
1563;SDS011;775;51.958;7.976;2023-07-16T12:55:32;16.30;;;3.63;;
1563;SDS011;775;51.958;7.976;2023-07-16T12:58:00;13.83;;;3.10;;
1563;SDS011;775;51.958;7.976;2023-07-16T13:00:28;13.50;;;3.03;;
1563;SDS011;775;51.958;7.976;2023-07-16T13:02:55;14.40;;;3.73;;
1563;SDS011;775;51.958;7.976;2023-07-16T13:05:22;12.20;;;2.87;;
1563;SDS011;775;51.958;7.976;2023-07-16T13:07:49;14.47;;;3.60;;
1563;SDS011;775;51.958;7.976;2023-07-16T13:10:17;11.70;;;2.70;;
1563;SDS011;775;51.958;7.976;2023-07-16T13:12:44;13.60;;;3.07;;
1563;SDS011;775;51.958;7.976;2023-07-16T13:15:11;13.17;;;2.93;;
1563;SDS011;775;51.958;7.976;2023-07-16T13:17:40;13.90;;;3.03;;
1563;SDS011;775;51.958;7.976;2023-07-16T13:20:07;12.00;;;2.80;;
1563;SDS011;775;51.958;7.976;2023-07-16T13:22:35;13.43;;;3.87;;
1563;SDS011;775;51.958;7.976;2023-07-16T13:25:02;14.20;;;2.80;;
1563;SDS011;775;51.958;7.976;2023-07-16T13:27:29;13.60;;;2.87;;
1563;SDS011;775;51.958;7.976;2023-07-16T13:29:56;16.40;;;2.73;;
1563;SDS011;775;51.958;7.976;2023-07-16T13:32:23;17.10;;;3.57;;
1563;SDS011;775;51.958;7.976;2023-07-16T13:34:53;13.47;;;2.77;;
1563;SDS011;775;51.958;7.976;2023-07-16T13:37:20;13.30;;;3.10;;
1563;SDS011;775;51.958;7.976;2023-07-16T13:39:48;13.07;;;3.43;;
1563;SDS011;775;51.958;7.976;2023-07-16T13:42:15;14.43;;;3.10;;
1563;SDS011;775;51.958;7.976;2023-07-16T13:44:42;13.60;;;3.40;;
1563;SDS011;775;51.958;7.976;2023-07-16T13:47:09;11.83;;;3.07;;
1563;SDS011;775;51.958;7.976;2023-07-16T13:49:36;14.60;;;3.60;;
1563;SDS011;775;51.958;7.976;2023-07-16T13:52:05;15.73;;;3.83;;
1563;SDS011;775;51.958;7.976;2023-07-16T13:54:32;14.20;;;3.60;;
1563;SDS011;775;51.958;7.976;2023-07-16T13:56:59;13.97;;;3.23;;
1563;SDS011;775;51.958;7.976;2023-07-16T13:59:26;13.63;;;3.40;;
1563;SDS011;775;51.958;7.976;2023-07-16T14:01:58;14.97;;;3.67;;
1563;SDS011;775;51.958;7.976;2023-07-16T14:04:26;14.60;;;3.10;;
1563;SDS011;775;51.958;7.976;2023-07-16T14:06:53;14.37;;;3.47;;
1563;SDS011;775;51.958;7.976;2023-07-16T14:09:21;13.80;;;3.07;;
1563;SDS011;775;51.958;7.976;2023-07-16T14:11:48;16.10;;;3.47;;
1563;SDS011;775;51.958;7.976;2023-07-16T14:14:16;15.20;;;3.30;;
1563;SDS011;775;51.958;7.976;2023-07-16T14:16:43;12.60;;;2.87;;
1563;SDS011;775;51.958;7.976;2023-07-16T14:19:10;14.03;;;3.40;;
1563;SDS011;775;51.958;7.976;2023-07-16T14:21:38;13.60;;;3.00;;
1563;SDS011;775;51.958;7.976;2023-07-16T14:24:05;11.50;;;2.77;;
1563;SDS011;775;51.958;7.976;2023-07-16T14:26:33;16.87;;;3.27;;
1563;SDS011;775;51.958;7.976;2023-07-16T14:29:01;18.63;;;3.97;;
1563;SDS011;775;51.958;7.976;2023-07-16T14:31:28;12.23;;;2.60;;
1563;SDS011;775;51.958;7.976;2023-07-16T14:33:55;13.30;;;3.03;;
1563;SDS011;775;51.958;7.976;2023-07-16T14:36:22;13.33;;;3.70;;
1563;SDS011;775;51.958;7.976;2023-07-16T14:38:49;14.13;;;3.10;;
1563;SDS011;775;51.958;7.976;2023-07-16T14:41:16;14.50;;;3.03;;
1563;SDS011;775;51.958;7.976;2023-07-16T14:43:45;12.70;;;3.37;;
1563;SDS011;775;51.958;7.976;2023-07-16T14:46:14;14.13;;;3.07;;
1563;SDS011;775;51.958;7.976;2023-07-16T14:48:41;13.33;;;3.30;;
1563;SDS011;775;51.958;7.976;2023-07-16T14:51:09;11.80;;;3.20;;
1563;SDS011;775;51.958;7.976;2023-07-16T14:53:36;12.87;;;3.00;;
1563;SDS011;775;51.958;7.976;2023-07-16T14:56:03;13.37;;;3.10;;
1563;SDS011;775;51.958;7.976;2023-07-16T14:58:32;15.13;;;3.70;;
1563;SDS011;775;51.958;7.976;2023-07-16T15:01:00;12.30;;;2.97;;
1563;SDS011;775;51.958;7.976;2023-07-16T15:03:28;12.50;;;3.17;;
1563;SDS011;775;51.958;7.976;2023-07-16T15:05:56;15.70;;;4.50;;
1563;SDS011;775;51.958;7.976;2023-07-16T15:08:23;14.80;;;3.60;;
1563;SDS011;775;51.958;7.976;2023-07-16T15:10:51;15.70;;;3.30;;
1563;SDS011;775;51.958;7.976;2023-07-16T15:13:20;13.50;;;3.00;;
1563;SDS011;775;51.958;7.976;2023-07-16T15:15:47;14.33;;;3.70;;
1563;SDS011;775;51.958;7.976;2023-07-16T15:18:16;11.90;;;3.33;;